sensor_id;sensor_type;location;lat;lon;timestamp;P1;durP1;ratioP1;P2;durP2;ratioP2
6121;SDS011;3091;51.506;7.672;2024-03-23T00:54:52;122.77;;;116.97;;
6121;SDS011;3091;51.506;7.672;2024-03-23T00:57:18;112.50;;;107.10;;
6121;SDS011;3091;51.506;7.672;2024-03-23T00:59:44;114.87;;;109.47;;
6121;SDS011;3091;51.506;7.672;2024-03-23T01:02:10;109.80;;;104.40;;
6121;SDS011;3091;51.506;7.672;2024-03-23T01:04:36;109.23;;;104.03;;
6121;SDS011;3091;51.506;7.672;2024-03-23T01:07:02;113.40;;;108.00;;
6121;SDS011;3091;51.506;7.672;2024-03-23T01:09:28;117.03;;;111.53;;
6121;SDS011;3091;51.506;7.672;2024-03-23T01:11:54;123.07;;;117.37;;
6121;SDS011;3091;51.506;7.672;2024-03-23T01:14:20;111.90;;;106.50;;
6121;SDS011;3091;51.506;7.672;2024-03-23T01:16:47;107.03;;;101.83;;
6121;SDS011;3091;51.506;7.672;2024-03-23T01:19:13;119.20;;;113.60;;
6121;SDS011;3091;51.506;7.672;2024-03-23T01:21:39;115.13;;;109.63;;
6121;SDS011;3091;51.506;7.672;2024-03-23T01:24:05;110.10;;;104.80;;
6121;SDS011;3091;51.506;7.672;2024-03-23T01:26:31;115.00;;;108.67;;
6121;SDS011;3091;51.506;7.672;2024-03-23T01:28:57;112.30;;;106.90;;
6121;SDS011;3091;51.506;7.672;2024-03-23T01:31:23;106.30;;;101.10;;
6121;SDS011;3091;51.506;7.672;2024-03-23T01:33:49;98.93;;;94.03;;
6121;SDS011;3091;51.506;7.672;2024-03-23T01:36:15;100.30;;;95.30;;
6121;SDS011;3091;51.506;7.672;2024-03-23T01:38:42;103.27;;;98.23;;
6121;SDS011;3091;51.506;7.672;2024-03-23T01:41:08;105.53;;;100.40;;
6121;SDS011;3091;51.506;7.672;2024-03-23T01:43:34;105.20;;;100.10;;
6121;SDS011;3091;51.506;7.672;2024-03-23T01:46:02;98.77;;;93.87;;
6121;SDS011;3091;51.506;7.672;2024-03-23T01:48:28;93.60;;;88.90;;
6121;SDS011;3091;51.506;7.672;2024-03-23T01:50:54;100.13;;;95.00;;
6121;SDS011;3091;51.506;7.672;2024-03-23T01:53:21;95.57;;;90.77;;
6121;SDS011;3091;51.506;7.672;2024-03-23T01:55:50;99.83;;;94.87;;
6121;SDS011;3091;51.506;7.672;2024-03-23T01:58:16;95.80;;;90.93;;
6121;SDS011;3091;51.506;7.672;2024-03-23T02:00:42;100.47;;;95.47;;
6121;SDS011;3091;51.506;7.672;2024-03-23T02:03:30;104.57;;;99.43;;
6121;SDS011;3091;51.506;7.672;2024-03-23T02:05:55;111.00;;;105.60;;
6121;SDS011;3091;51.506;7.672;2024-03-23T02:08:22;113.60;;;108.10;;
6121;SDS011;3091;51.506;7.672;2024-03-23T02:10:48;116.93;;;111.33;;
6121;SDS011;3091;51.506;7.672;2024-03-23T02:13:15;110.53;;;105.13;;
6121;SDS011;3091;51.506;7.672;2024-03-23T02:15:41;120.37;;;114.67;;
6121;SDS011;3091;51.506;7.672;2024-03-23T02:18:08;119.00;;;113.30;;
6121;SDS011;3091;51.506;7.672;2024-03-23T02:20:34;123.83;;;117.97;;
6121;SDS011;3091;51.506;7.672;2024-03-23T02:23:00;119.90;;;114.00;;
6121;SDS011;3091;51.506;7.672;2024-03-23T02:25:26;122.27;;;116.37;;
6121;SDS011;3091;51.506;7.672;2024-03-23T02:27:52;128.43;;;122.40;;
6121;SDS011;3091;51.506;7.672;2024-03-23T02:30:20;135.50;;;129.20;;
6121;SDS011;3091;51.506;7.672;2024-03-23T02:32:46;138.60;;;132.10;;
6121;SDS011;3091;51.506;7.672;2024-03-23T02:35:12;142.93;;;136.30;;
6121;SDS011;3091;51.506;7.672;2024-03-23T02:37:38;150.23;;;143.33;;
6121;SDS011;3091;51.506;7.672;2024-03-23T02:40:04;148.00;;;141.20;;
6121;SDS011;3091;51.506;7.672;2024-03-23T02:42:30;143.33;;;136.73;;
6121;SDS011;3091;51.506;7.672;2024-03-23T02:44:56;147.13;;;140.33;;
6121;SDS011;3091;51.506;7.672;2024-03-23T02:47:22;147.87;;;141.00;;
6121;SDS011;3091;51.506;7.672;2024-03-23T02:49:48;149.23;;;142.37;;
6121;SDS011;3091;51.506;7.672;2024-03-23T02:52:14;147.27;;;140.50;;
6121;SDS011;3091;51.506;7.672;2024-03-23T02:54:40;146.80;;;140.10;;
6121;SDS011;3091;51.506;7.672;2024-03-23T02:57:09;144.90;;;138.20;;
6121;SDS011;3091;51.506;7.672;2024-03-23T02:59:35;143.57;;;136.97;;
6121;SDS011;3091;51.506;7.672;2024-03-23T03:02:01;148.90;;;142.17;;
6121;SDS011;3091;51.506;7.672;2024-03-23T03:04:29;154.13;;;147.13;;
6121;SDS011;3091;51.506;7.672;2024-03-23T03:06:55;161.53;;;154.33;;
6121;SDS011;3091;51.506;7.672;2024-03-23T03:09:21;160.67;;;153.47;;
6121;SDS011;3091;51.506;7.672;2024-03-23T03:11:47;155.63;;;148.53;;
6121;SDS011;3091;51.506;7.672;2024-03-23T03:14:13;151.80;;;144.90;;
6121;SDS011;3091;51.506;7.672;2024-03-23T03:16:39;149.17;;;142.37;;
6121;SDS011;3091;51.506;7.672;2024-03-23T03:19:08;144.20;;;137.60;;
6121;SDS011;3091;51.506;7.672;2024-03-23T03:21:35;137.40;;;131.00;;
6121;SDS011;3091;51.506;7.672;2024-03-23T03:24:02;145.07;;;138.53;;
6121;SDS011;3091;51.506;7.672;2024-03-23T03:26:28;133.60;;;127.50;;
6121;SDS011;3091;51.506;7.672;2024-03-23T03:28:54;130.60;;;124.60;;
6121;SDS011;3091;51.506;7.672;2024-03-23T03:31:20;139.77;;;133.43;;
6121;SDS011;3091;51.506;7.672;2024-03-23T03:33:46;141.80;;;135.50;;
6121;SDS011;3091;51.506;7.672;2024-03-23T03:36:19;141.70;;;135.30;;
6121;SDS011;3091;51.506;7.672;2024-03-23T03:38:46;140.20;;;133.80;;
6121;SDS011;3091;51.506;7.672;2024-03-23T03:41:12;142.70;;;136.20;;
6121;SDS011;3091;51.506;7.672;2024-03-23T03:43:38;136.67;;;130.37;;
6121;SDS011;3091;51.506;7.672;2024-03-23T03:46:06;136.43;;;130.13;;
6121;SDS011;3091;51.506;7.672;2024-03-23T03:48:33;134.77;;;128.53;;
6121;SDS011;3091;51.506;7.672;2024-03-23T03:50:59;129.30;;;123.27;;
6121;SDS011;3091;51.506;7.672;2024-03-23T03:53:26;130.43;;;124.33;;
6121;SDS011;3091;51.506;7.672;2024-03-23T03:55:52;142.77;;;136.27;;
6121;SDS011;3091;51.506;7.672;2024-03-23T03:58:18;156.10;;;149.10;;
6121;SDS011;3091;51.506;7.672;2024-03-23T04:00:44;162.73;;;155.43;;
6121;SDS011;3091;51.506;7.672;2024-03-23T04:03:10;173.63;;;166.03;;
6121;SDS011;3091;51.506;7.672;2024-03-23T04:05:38;165.13;;;157.73;;
6121;SDS011;3091;51.506;7.672;2024-03-23T04:08:05;172.80;;;165.10;;
6121;SDS011;3091;51.506;7.672;2024-03-23T04:10:31;170.03;;;162.53;;
6121;SDS011;3091;51.506;7.672;2024-03-23T04:12:57;171.20;;;163.70;;
6121;SDS011;3091;51.506;7.672;2024-03-23T04:15:23;166.80;;;159.50;;
6121;SDS011;3091;51.506;7.672;2024-03-23T04:17:49;171.13;;;163.73;;
6121;SDS011;3091;51.506;7.672;2024-03-23T04:20:16;160.30;;;153.20;;
6121;SDS011;3091;51.506;7.672;2024-03-23T04:22:42;158.13;;;151.07;;
6121;SDS011;3091;51.506;7.672;2024-03-23T04:25:08;155.80;;;148.80;;
6121;SDS011;3091;51.506;7.672;2024-03-23T04:27:38;165.30;;;158.00;;
6121;SDS011;3091;51.506;7.672;2024-03-23T04:30:05;173.67;;;166.03;;
6121;SDS011;3091;51.506;7.672;2024-03-23T04:32:45;173.27;;;165.67;;
6121;SDS011;3091;51.506;7.672;2024-03-23T04:35:11;172.77;;;165.20;;
6121;SDS011;3091;51.506;7.672;2024-03-23T04:37:38;176.47;;;168.77;;
6121;SDS011;3091;51.506;7.672;2024-03-23T04:40:07;186.20;;;178.10;;
6121;SDS011;3091;51.506;7.672;2024-03-23T04:42:33;191.90;;;183.60;;
6121;SDS011;3091;51.506;7.672;2024-03-23T04:44:59;191.63;;;183.33;;
6121;SDS011;3091;51.506;7.672;2024-03-23T04:47:25;195.10;;;186.70;;
6121;SDS011;3091;51.506;7.672;2024-03-23T04:49:51;195.90;;;187.50;;
6121;SDS011;3091;51.506;7.672;2024-03-23T04:52:17;187.13;;;179.03;;
6121;SDS011;3091;51.506;7.672;2024-03-23T04:54:44;177.93;;;170.10;;
6121;SDS011;3091;51.506;7.672;2024-03-23T04:57:13;184.00;;;176.00;;
6121;SDS011;3091;51.506;7.672;2024-03-23T04:59:39;177.03;;;169.30;;
6121;SDS011;3091;51.506;7.672;2024-03-23T05:02:07;175.37;;;167.67;;
6121;SDS011;3091;51.506;7.672;2024-03-23T05:04:33;168.83;;;161.33;;
6121;SDS011;3091;51.506;7.672;2024-03-23T05:06:59;177.20;;;169.40;;
6121;SDS011;3091;51.506;7.672;2024-03-23T05:09:25;177.10;;;169.40;;
6121;SDS011;3091;51.506;7.672;2024-03-23T05:11:54;178.93;;;171.13;;
6121;SDS011;3091;51.506;7.672;2024-03-23T05:14:20;176.10;;;168.30;;
6121;SDS011;3091;51.506;7.672;2024-03-23T05:16:46;177.00;;;169.27;;
6121;SDS011;3091;51.506;7.672;2024-03-23T05:19:13;175.80;;;168.13;;
6121;SDS011;3091;51.506;7.672;2024-03-23T05:21:39;169.17;;;161.73;;
6121;SDS011;3091;51.506;7.672;2024-03-23T05:24:05;164.13;;;156.93;;
6121;SDS011;3091;51.506;7.672;2024-03-23T05:26:31;159.70;;;152.60;;
6121;SDS011;3091;51.506;7.672;2024-03-23T05:29:01;155.07;;;148.17;;
6121;SDS011;3091;51.506;7.672;2024-03-23T05:31:28;150.10;;;143.40;;
6121;SDS011;3091;51.506;7.672;2024-03-23T05:33:54;147.10;;;140.50;;
6121;SDS011;3091;51.506;7.672;2024-03-23T05:36:20;151.73;;;145.03;;
6121;SDS011;3091;51.506;7.672;2024-03-23T05:38:47;148.87;;;142.27;;
6121;SDS011;3091;51.506;7.672;2024-03-23T05:41:13;145.53;;;138.93;;
6121;SDS011;3091;51.506;7.672;2024-03-23T05:43:39;148.80;;;142.20;;
6121;SDS011;3091;51.506;7.672;2024-03-23T05:46:05;143.20;;;136.70;;
6121;SDS011;3091;51.506;7.672;2024-03-23T05:48:31;142.50;;;136.10;;
6121;SDS011;3091;51.506;7.672;2024-03-23T05:50:57;131.33;;;125.23;;
6121;SDS011;3091;51.506;7.672;2024-03-23T05:53:23;135.47;;;129.27;;
6121;SDS011;3091;51.506;7.672;2024-03-23T05:55:50;139.50;;;133.10;;
6121;SDS011;3091;51.506;7.672;2024-03-23T05:58:26;139.10;;;132.70;;
6121;SDS011;3091;51.506;7.672;2024-03-23T06:00:56;148.33;;;141.73;;
6121;SDS011;3091;51.506;7.672;2024-03-23T06:03:23;199.70;;;191.10;;
6121;SDS011;3091;51.506;7.672;2024-03-23T06:05:49;210.40;;;201.20;;
6121;SDS011;3091;51.506;7.672;2024-03-23T06:08:15;207.67;;;198.67;;
6121;SDS011;3091;51.506;7.672;2024-03-23T06:10:41;212.17;;;202.57;;
6121;SDS011;3091;51.506;7.672;2024-03-23T06:13:07;192.37;;;183.77;;
6121;SDS011;3091;51.506;7.672;2024-03-23T06:15:33;206.40;;;197.30;;
6121;SDS011;3091;51.506;7.672;2024-03-23T06:18:02;202.27;;;193.37;;
6121;SDS011;3091;51.506;7.672;2024-03-23T06:20:29;215.00;;;205.87;;
6121;SDS011;3091;51.506;7.672;2024-03-23T06:22:55;204.97;;;196.37;;
6121;SDS011;3091;51.506;7.672;2024-03-23T06:25:21;194.80;;;186.60;;
6121;SDS011;3091;51.506;7.672;2024-03-23T06:27:47;194.23;;;185.97;;
6121;SDS011;3091;51.506;7.672;2024-03-23T06:30:13;195.73;;;187.33;;
6121;SDS011;3091;51.506;7.672;2024-03-23T06:32:39;184.83;;;176.93;;
6121;SDS011;3091;51.506;7.672;2024-03-23T06:35:05;191.97;;;183.87;;
6121;SDS011;3091;51.506;7.672;2024-03-23T06:37:36;189.80;;;181.80;;
6121;SDS011;3091;51.506;7.672;2024-03-23T06:40:03;191.57;;;183.27;;
6121;SDS011;3091;51.506;7.672;2024-03-23T06:42:33;190.80;;;182.70;;
6121;SDS011;3091;51.506;7.672;2024-03-23T06:44:59;172.67;;;165.10;;
6121;SDS011;3091;51.506;7.672;2024-03-23T06:47:25;163.00;;;156.10;;
6121;SDS011;3091;51.506;7.672;2024-03-23T06:49:51;152.13;;;145.53;;
6121;SDS011;3091;51.506;7.672;2024-03-23T06:52:17;146.30;;;140.03;;
6121;SDS011;3091;51.506;7.672;2024-03-23T06:54:43;142.47;;;135.73;;
6121;SDS011;3091;51.506;7.672;2024-03-23T06:57:10;133.90;;;128.00;;
6121;SDS011;3091;51.506;7.672;2024-03-23T06:59:37;127.60;;;122.10;;
6121;SDS011;3091;51.506;7.672;2024-03-23T07:02:04;125.70;;;120.20;;
6121;SDS011;3091;51.506;7.672;2024-03-23T07:04:30;117.53;;;112.30;;
6121;SDS011;3091;51.506;7.672;2024-03-23T07:06:56;113.80;;;108.80;;
6121;SDS011;3091;51.506;7.672;2024-03-23T07:09:22;96.70;;;92.20;;
6121;SDS011;3091;51.506;7.672;2024-03-23T07:11:51;83.53;;;79.47;;
6121;SDS011;3091;51.506;7.672;2024-03-23T07:14:17;86.17;;;81.77;;
6121;SDS011;3091;51.506;7.672;2024-03-23T07:16:43;85.77;;;80.20;;
6121;SDS011;3091;51.506;7.672;2024-03-23T07:19:09;68.13;;;64.73;;
6121;SDS011;3091;51.506;7.672;2024-03-23T07:21:35;62.27;;;58.80;;
6121;SDS011;3091;51.506;7.672;2024-03-23T07:24:04;53.10;;;50.27;;
6121;SDS011;3091;51.506;7.672;2024-03-23T07:26:30;52.20;;;49.30;;
6121;SDS011;3091;51.506;7.672;2024-03-23T07:28:56;46.27;;;43.70;;
6121;SDS011;3091;51.506;7.672;2024-03-23T07:31:22;48.40;;;44.40;;
6121;SDS011;3091;51.506;7.672;2024-03-23T07:33:49;40.80;;;38.50;;
6121;SDS011;3091;51.506;7.672;2024-03-23T07:36:15;38.80;;;36.40;;
6121;SDS011;3091;51.506;7.672;2024-03-23T07:38:41;35.93;;;33.50;;
6121;SDS011;3091;51.506;7.672;2024-03-23T07:41:11;38.67;;;36.20;;
6121;SDS011;3091;51.506;7.672;2024-03-23T07:43:38;31.60;;;30.00;;
6121;SDS011;3091;51.506;7.672;2024-03-23T07:46:05;31.17;;;29.50;;
6121;SDS011;3091;51.506;7.672;2024-03-23T07:48:32;27.53;;;25.93;;
6121;SDS011;3091;51.506;7.672;2024-03-23T07:50:59;24.60;;;23.30;;
6121;SDS011;3091;51.506;7.672;2024-03-23T07:53:25;29.47;;;27.97;;
6121;SDS011;3091;51.506;7.672;2024-03-23T07:55:58;32.33;;;29.23;;
6121;SDS011;3091;51.506;7.672;2024-03-23T07:58:24;27.13;;;25.63;;
6121;SDS011;3091;51.506;7.672;2024-03-23T08:00:51;26.80;;;25.40;;
6121;SDS011;3091;51.506;7.672;2024-03-23T08:03:18;22.00;;;21.10;;
6121;SDS011;3091;51.506;7.672;2024-03-23T08:05:44;23.70;;;22.53;;
6121;SDS011;3091;51.506;7.672;2024-03-23T08:08:10;22.17;;;21.27;;
6121;SDS011;3091;51.506;7.672;2024-03-23T08:10:36;21.70;;;20.80;;
6121;SDS011;3091;51.506;7.672;2024-03-23T08:13:03;23.27;;;22.27;;
6121;SDS011;3091;51.506;7.672;2024-03-23T08:15:31;23.07;;;21.60;;
6121;SDS011;3091;51.506;7.672;2024-03-23T08:18:02;19.77;;;18.97;;
6121;SDS011;3091;51.506;7.672;2024-03-23T08:20:29;18.80;;;18.07;;
6121;SDS011;3091;51.506;7.672;2024-03-23T08:22:55;23.10;;;22.10;;
6121;SDS011;3091;51.506;7.672;2024-03-23T08:25:21;22.93;;;21.20;;
6121;SDS011;3091;51.506;7.672;2024-03-23T08:27:47;19.60;;;18.60;;
6121;SDS011;3091;51.506;7.672;2024-03-23T08:30:13;22.60;;;21.20;;
6121;SDS011;3091;51.506;7.672;2024-03-23T08:32:39;19.87;;;18.90;;
6121;SDS011;3091;51.506;7.672;2024-03-23T08:35:05;21.03;;;20.00;;
6121;SDS011;3091;51.506;7.672;2024-03-23T08:37:31;20.33;;;19.37;;
6121;SDS011;3091;51.506;7.672;2024-03-23T08:39:57;20.33;;;19.53;;
6121;SDS011;3091;51.506;7.672;2024-03-23T08:42:23;19.70;;;18.93;;
6121;SDS011;3091;51.506;7.672;2024-03-23T08:44:49;21.20;;;20.33;;
6121;SDS011;3091;51.506;7.672;2024-03-23T08:47:18;23.67;;;22.67;;
6121;SDS011;3091;51.506;7.672;2024-03-23T08:49:44;22.70;;;21.60;;
6121;SDS011;3091;51.506;7.672;2024-03-23T08:52:10;22.37;;;21.47;;
6121;SDS011;3091;51.506;7.672;2024-03-23T08:54:36;22.23;;;21.13;;
6121;SDS011;3091;51.506;7.672;2024-03-23T08:57:02;22.27;;;21.37;;
6121;SDS011;3091;51.506;7.672;2024-03-23T08:59:28;20.47;;;19.57;;
6121;SDS011;3091;51.506;7.672;2024-03-23T09:01:54;20.77;;;19.60;;
6121;SDS011;3091;51.506;7.672;2024-03-23T09:04:20;23.27;;;22.37;;
6121;SDS011;3091;51.506;7.672;2024-03-23T09:06:46;19.00;;;18.20;;
6121;SDS011;3091;51.506;7.672;2024-03-23T09:09:12;21.17;;;20.20;;
6121;SDS011;3091;51.506;7.672;2024-03-23T09:11:38;22.90;;;21.83;;
6121;SDS011;3091;51.506;7.672;2024-03-23T09:14:05;18.77;;;18.07;;
6121;SDS011;3091;51.506;7.672;2024-03-23T09:16:32;18.07;;;17.47;;
6121;SDS011;3091;51.506;7.672;2024-03-23T09:18:58;18.70;;;17.90;;
6121;SDS011;3091;51.506;7.672;2024-03-23T09:21:24;17.83;;;17.13;;
6121;SDS011;3091;51.506;7.672;2024-03-23T09:23:50;20.40;;;19.60;;
6121;SDS011;3091;51.506;7.672;2024-03-23T09:26:16;19.80;;;19.10;;
6121;SDS011;3091;51.506;7.672;2024-03-23T09:28:43;19.50;;;18.70;;
6121;SDS011;3091;51.506;7.672;2024-03-23T09:31:09;19.30;;;18.50;;
6121;SDS011;3091;51.506;7.672;2024-03-23T09:33:39;17.90;;;17.30;;
6121;SDS011;3091;51.506;7.672;2024-03-23T09:36:05;33.77;;;31.97;;
6121;SDS011;3091;51.506;7.672;2024-03-23T09:38:32;32.10;;;30.63;;
6121;SDS011;3091;51.506;7.672;2024-03-23T09:40:58;20.60;;;19.90;;
6121;SDS011;3091;51.506;7.672;2024-03-23T09:43:24;18.37;;;17.27;;
6121;SDS011;3091;51.506;7.672;2024-03-23T09:45:50;21.23;;;20.33;;
6121;SDS011;3091;51.506;7.672;2024-03-23T09:48:17;17.90;;;17.20;;
6121;SDS011;3091;51.506;7.672;2024-03-23T09:50:45;18.40;;;17.70;;
6121;SDS011;3091;51.506;7.672;2024-03-23T09:53:13;17.53;;;16.80;;
6121;SDS011;3091;51.506;7.672;2024-03-23T09:55:43;19.10;;;18.40;;
6121;SDS011;3091;51.506;7.672;2024-03-23T09:58:12;18.70;;;18.00;;
6121;SDS011;3091;51.506;7.672;2024-03-23T10:00:38;19.47;;;18.57;;
6121;SDS011;3091;51.506;7.672;2024-03-23T10:03:04;17.17;;;16.57;;
6121;SDS011;3091;51.506;7.672;2024-03-23T10:05:31;17.67;;;16.97;;
6121;SDS011;3091;51.506;7.672;2024-03-23T10:07:59;17.53;;;16.83;;
6121;SDS011;3091;51.506;7.672;2024-03-23T10:10:25;18.40;;;17.60;;
6121;SDS011;3091;51.506;7.672;2024-03-23T10:12:52;18.97;;;18.27;;
6121;SDS011;3091;51.506;7.672;2024-03-23T10:15:19;20.90;;;20.20;;
6121;SDS011;3091;51.506;7.672;2024-03-23T10:17:45;21.00;;;20.30;;
6121;SDS011;3091;51.506;7.672;2024-03-23T10:20:11;21.57;;;20.73;;
6121;SDS011;3091;51.506;7.672;2024-03-23T10:22:37;20.80;;;20.10;;
6121;SDS011;3091;51.506;7.672;2024-03-23T10:25:07;21.93;;;21.17;;
6121;SDS011;3091;51.506;7.672;2024-03-23T10:27:33;21.23;;;20.53;;
6121;SDS011;3091;51.506;7.672;2024-03-23T10:30:09;22.80;;;22.00;;
6121;SDS011;3091;51.506;7.672;2024-03-23T10:32:36;22.60;;;21.80;;
6121;SDS011;3091;51.506;7.672;2024-03-23T10:37:44;26.17;;;24.73;;
6121;SDS011;3091;51.506;7.672;2024-03-23T10:40:20;21.33;;;19.80;;
6121;SDS011;3091;51.506;7.672;2024-03-23T10:42:46;18.77;;;17.97;;
6121;SDS011;3091;51.506;7.672;2024-03-23T10:45:12;18.50;;;17.90;;
6121;SDS011;3091;51.506;7.672;2024-03-23T10:47:38;17.90;;;17.30;;
6121;SDS011;3091;51.506;7.672;2024-03-23T10:50:04;18.03;;;17.33;;
6121;SDS011;3091;51.506;7.672;2024-03-23T10:52:31;17.63;;;17.03;;
6121;SDS011;3091;51.506;7.672;2024-03-23T10:54:58;20.30;;;19.40;;
6121;SDS011;3091;51.506;7.672;2024-03-23T10:57:29;23.07;;;22.37;;
6121;SDS011;3091;51.506;7.672;2024-03-23T10:59:57;25.30;;;24.40;;
6121;SDS011;3091;51.506;7.672;2024-03-23T11:05:30;19.10;;;18.40;;
6121;SDS011;3091;51.506;7.672;2024-03-23T11:07:56;20.20;;;19.50;;
6121;SDS011;3091;51.506;7.672;2024-03-23T11:10:26;24.27;;;23.47;;
6121;SDS011;3091;51.506;7.672;2024-03-23T11:12:54;17.30;;;16.70;;
6121;SDS011;3091;51.506;7.672;2024-03-23T11:15:20;16.80;;;16.20;;
6121;SDS011;3091;51.506;7.672;2024-03-23T11:20:32;17.90;;;17.30;;
6121;SDS011;3091;51.506;7.672;2024-03-23T11:22:59;25.77;;;24.53;;
6121;SDS011;3091;51.506;7.672;2024-03-23T11:25:26;22.60;;;21.80;;
6121;SDS011;3091;51.506;7.672;2024-03-23T11:28:13;20.07;;;19.37;;
6121;SDS011;3091;51.506;7.672;2024-03-23T11:30:39;18.07;;;17.47;;
6121;SDS011;3091;51.506;7.672;2024-03-23T11:33:05;19.40;;;18.50;;
6121;SDS011;3091;51.506;7.672;2024-03-23T11:35:37;18.97;;;18.17;;
6121;SDS011;3091;51.506;7.672;2024-03-23T11:38:13;17.90;;;17.20;;
6121;SDS011;3091;51.506;7.672;2024-03-23T11:40:40;21.33;;;20.53;;
6121;SDS011;3091;51.506;7.672;2024-03-23T11:43:10;22.57;;;21.33;;
6121;SDS011;3091;51.506;7.672;2024-03-23T11:45:42;21.50;;;20.70;;
6121;SDS011;3091;51.506;7.672;2024-03-23T11:48:09;29.70;;;28.40;;
6121;SDS011;3091;51.506;7.672;2024-03-23T11:50:36;30.90;;;29.50;;
6121;SDS011;3091;51.506;7.672;2024-03-23T11:53:22;31.00;;;29.50;;
6121;SDS011;3091;51.506;7.672;2024-03-23T11:58:14;30.10;;;28.70;;
6121;SDS011;3091;51.506;7.672;2024-03-23T12:00:40;29.80;;;28.60;;
6121;SDS011;3091;51.506;7.672;2024-03-23T12:03:07;26.47;;;25.47;;
6121;SDS011;3091;51.506;7.672;2024-03-23T12:05:36;24.30;;;23.40;;
6121;SDS011;3091;51.506;7.672;2024-03-23T12:10:46;21.50;;;20.80;;
6121;SDS011;3091;51.506;7.672;2024-03-23T12:13:14;22.20;;;21.50;;
6121;SDS011;3091;51.506;7.672;2024-03-23T12:15:42;22.73;;;21.93;;
6121;SDS011;3091;51.506;7.672;2024-03-23T12:18:08;22.80;;;22.00;;
6121;SDS011;3091;51.506;7.672;2024-03-23T12:20:35;23.00;;;22.20;;
6121;SDS011;3091;51.506;7.672;2024-03-23T12:23:20;24.10;;;23.20;;
6121;SDS011;3091;51.506;7.672;2024-03-23T12:25:48;22.90;;;22.20;;
6121;SDS011;3091;51.506;7.672;2024-03-23T12:28:14;23.13;;;22.33;;
6121;SDS011;3091;51.506;7.672;2024-03-23T12:30:40;22.93;;;22.13;;
6121;SDS011;3091;51.506;7.672;2024-03-23T12:33:07;23.10;;;22.30;;
6121;SDS011;3091;51.506;7.672;2024-03-23T12:35:33;20.03;;;19.23;;
6121;SDS011;3091;51.506;7.672;2024-03-23T12:37:59;17.93;;;17.33;;
6121;SDS011;3091;51.506;7.672;2024-03-23T12:40:26;17.70;;;17.10;;
6121;SDS011;3091;51.506;7.672;2024-03-23T12:42:53;17.80;;;17.10;;
6121;SDS011;3091;51.506;7.672;2024-03-23T12:45:21;18.20;;;17.60;;
6121;SDS011;3091;51.506;7.672;2024-03-23T12:47:47;26.83;;;25.83;;
6121;SDS011;3091;51.506;7.672;2024-03-23T12:50:13;18.90;;;18.30;;
6121;SDS011;3091;51.506;7.672;2024-03-23T12:52:39;18.40;;;17.80;;
6121;SDS011;3091;51.506;7.672;2024-03-23T12:55:05;18.50;;;17.80;;
6121;SDS011;3091;51.506;7.672;2024-03-23T12:57:32;18.50;;;17.80;;
6121;SDS011;3091;51.506;7.672;2024-03-23T12:59:58;17.73;;;17.13;;
6121;SDS011;3091;51.506;7.672;2024-03-23T13:02:27;17.60;;;17.00;;
6121;SDS011;3091;51.506;7.672;2024-03-23T13:04:53;16.67;;;16.07;;
6121;SDS011;3091;51.506;7.672;2024-03-23T13:07:20;17.70;;;16.90;;
6121;SDS011;3091;51.506;7.672;2024-03-23T13:09:46;17.50;;;16.90;;
6121;SDS011;3091;51.506;7.672;2024-03-23T13:12:12;17.70;;;17.00;;
6121;SDS011;3091;51.506;7.672;2024-03-23T13:14:39;18.27;;;17.57;;
6121;SDS011;3091;51.506;7.672;2024-03-23T13:17:05;23.27;;;22.37;;
6121;SDS011;3091;51.506;7.672;2024-03-23T13:19:31;22.20;;;21.50;;
6121;SDS011;3091;51.506;7.672;2024-03-23T13:21:58;21.73;;;20.93;;
6121;SDS011;3091;51.506;7.672;2024-03-23T13:24:25;21.10;;;20.40;;
6121;SDS011;3091;51.506;7.672;2024-03-23T13:26:51;18.03;;;17.33;;
6121;SDS011;3091;51.506;7.672;2024-03-23T13:29:21;21.37;;;20.67;;
6121;SDS011;3091;51.506;7.672;2024-03-23T13:31:47;22.47;;;21.77;;
6121;SDS011;3091;51.506;7.672;2024-03-23T13:34:13;22.63;;;21.83;;
6121;SDS011;3091;51.506;7.672;2024-03-23T13:36:43;23.03;;;22.13;;
6121;SDS011;3091;51.506;7.672;2024-03-23T13:39:09;23.13;;;22.37;;
6121;SDS011;3091;51.506;7.672;2024-03-23T13:41:43;19.00;;;18.10;;
6121;SDS011;3091;51.506;7.672;2024-03-23T13:44:09;20.30;;;19.17;;
6121;SDS011;3091;51.506;7.672;2024-03-23T13:46:36;18.57;;;17.87;;
6121;SDS011;3091;51.506;7.672;2024-03-23T13:49:02;18.43;;;17.73;;
6121;SDS011;3091;51.506;7.672;2024-03-23T13:51:28;18.27;;;17.57;;
6121;SDS011;3091;51.506;7.672;2024-03-23T13:53:54;17.00;;;16.40;;
6121;SDS011;3091;51.506;7.672;2024-03-23T13:56:29;20.47;;;19.00;;
6121;SDS011;3091;51.506;7.672;2024-03-23T13:58:55;41.53;;;39.63;;
6121;SDS011;3091;51.506;7.672;2024-03-23T14:01:23;53.23;;;50.53;;
6121;SDS011;3091;51.506;7.672;2024-03-23T14:03:49;66.17;;;62.97;;
6121;SDS011;3091;51.506;7.672;2024-03-23T14:06:15;80.23;;;76.53;;
6121;SDS011;3091;51.506;7.672;2024-03-23T14:08:41;90.80;;;86.80;;
6121;SDS011;3091;51.506;7.672;2024-03-23T14:11:08;55.07;;;52.37;;
6121;SDS011;3091;51.506;7.672;2024-03-23T14:13:35;55.03;;;52.47;;
6121;SDS011;3091;51.506;7.672;2024-03-23T14:16:01;46.33;;;44.13;;
6121;SDS011;3091;51.506;7.672;2024-03-23T14:18:27;42.17;;;40.30;;
6121;SDS011;3091;51.506;7.672;2024-03-23T14:20:57;29.90;;;28.50;;
6121;SDS011;3091;51.506;7.672;2024-03-23T14:23:27;26.03;;;25.03;;
6121;SDS011;3091;51.506;7.672;2024-03-23T14:25:59;23.33;;;22.40;;
6121;SDS011;3091;51.506;7.672;2024-03-23T14:28:26;25.97;;;25.07;;
6121;SDS011;3091;51.506;7.672;2024-03-23T14:30:52;23.43;;;22.63;;
6121;SDS011;3091;51.506;7.672;2024-03-23T14:33:20;21.33;;;20.50;;
6121;SDS011;3091;51.506;7.672;2024-03-23T14:35:56;19.70;;;19.00;;
6121;SDS011;3091;51.506;7.672;2024-03-23T14:38:22;37.07;;;35.27;;
6121;SDS011;3091;51.506;7.672;2024-03-23T14:40:48;46.63;;;44.53;;
6121;SDS011;3091;51.506;7.672;2024-03-23T14:43:15;36.10;;;34.40;;
6121;SDS011;3091;51.506;7.672;2024-03-23T14:46:26;28.47;;;27.20;;
6121;SDS011;3091;51.506;7.672;2024-03-23T14:48:27;26.90;;;25.80;;
6121;SDS011;3091;51.506;7.672;2024-03-23T14:50:59;25.20;;;24.20;;
6121;SDS011;3091;51.506;7.672;2024-03-23T14:53:29;20.90;;;20.10;;
6121;SDS011;3091;51.506;7.672;2024-03-23T14:55:55;19.87;;;19.17;;
6121;SDS011;3091;51.506;7.672;2024-03-23T14:58:22;17.97;;;17.07;;
6121;SDS011;3091;51.506;7.672;2024-03-23T15:00:49;17.53;;;16.93;;
6121;SDS011;3091;51.506;7.672;2024-03-23T15:03:16;15.33;;;14.83;;
6121;SDS011;3091;51.506;7.672;2024-03-23T15:05:51;15.10;;;14.60;;
6121;SDS011;3091;51.506;7.672;2024-03-23T15:08:19;14.77;;;14.27;;
6121;SDS011;3091;51.506;7.672;2024-03-23T15:10:45;14.80;;;14.30;;
6121;SDS011;3091;51.506;7.672;2024-03-23T15:13:12;15.30;;;14.80;;
6121;SDS011;3091;51.506;7.672;2024-03-23T15:15:39;15.10;;;14.60;;
6121;SDS011;3091;51.506;7.672;2024-03-23T15:18:06;14.87;;;14.23;;
6121;SDS011;3091;51.506;7.672;2024-03-23T15:20:32;15.87;;;15.37;;
6121;SDS011;3091;51.506;7.672;2024-03-23T15:23:00;16.80;;;16.30;;
6121;SDS011;3091;51.506;7.672;2024-03-23T15:25:27;16.20;;;15.60;;
6121;SDS011;3091;51.506;7.672;2024-03-23T15:27:53;15.00;;;14.50;;
6121;SDS011;3091;51.506;7.672;2024-03-23T15:30:20;16.23;;;15.73;;
6121;SDS011;3091;51.506;7.672;2024-03-23T15:32:46;17.13;;;15.97;;
6121;SDS011;3091;51.506;7.672;2024-03-23T15:35:12;15.10;;;14.33;;
6121;SDS011;3091;51.506;7.672;2024-03-23T15:37:38;15.30;;;14.80;;
6121;SDS011;3091;51.506;7.672;2024-03-23T15:40:06;15.20;;;14.70;;
6121;SDS011;3091;51.506;7.672;2024-03-23T15:42:32;14.70;;;14.20;;
6121;SDS011;3091;51.506;7.672;2024-03-23T15:44:58;15.03;;;14.33;;